createdAt,value
2018-08-06T00:02:19.130Z,100318.91
2018-08-06T00:04:46.749Z,100317.08
2018-08-06T00:07:14.423Z,100321.07
2018-08-06T00:09:42.071Z,100323.02
2018-08-06T00:12:09.629Z,100324.19
2018-08-06T00:14:37.637Z,100320.47
2018-08-06T00:17:05.709Z,100328.89
2018-08-06T00:19:33.363Z,100326.38
2018-08-06T00:22:00.965Z,100324.27
2018-08-06T00:24:28.595Z,100322.33
2018-08-06T00:26:56.522Z,100328.63
2018-08-06T00:29:24.122Z,100325.57
2018-08-06T00:31:51.812Z,100321.09
2018-08-06T00:34:19.418Z,100319.22
2018-08-06T00:36:47.043Z,100325.57
2018-08-06T00:39:14.750Z,100327.34
2018-08-06T00:41:42.262Z,100318.37
2018-08-06T00:44:09.914Z,100308.74
2018-08-06T00:46:38.189Z,100314.87
2018-08-06T00:49:05.956Z,100318.73
2018-08-06T00:51:33.554Z,100306.08
2018-08-06T00:54:01.144Z,100303.73
2018-08-06T00:56:29.351Z,100304.91
2018-08-06T00:58:56.968Z,100303.59
2018-08-06T01:01:24.589Z,100305.06
2018-08-06T01:03:52.262Z,100298.32
2018-08-06T01:06:19.903Z,100298.70
2018-08-06T01:08:47.555Z,100299.83
2018-08-06T01:11:15.263Z,100295.72
2018-08-06T01:13:43.005Z,100296.56
2018-08-06T01:16:10.737Z,100301.54
2018-08-06T01:18:38.373Z,100304.20
2018-08-06T01:21:06.269Z,100306.13
2018-08-06T01:23:34.010Z,100297.79
2018-08-06T01:26:01.718Z,100298.94
2018-08-06T01:28:29.316Z,100304.03
2018-08-06T01:30:56.979Z,100306.21
2018-08-06T01:33:24.565Z,100308.31
2018-08-06T01:35:52.182Z,100302.40
2018-08-06T01:38:19.828Z,100296.36
2018-08-06T01:40:47.454Z,100289.53
2018-08-06T01:43:15.063Z,100285.63
2018-08-06T01:45:42.704Z,100283.72
2018-08-06T01:48:10.275Z,100276.39
2018-08-06T01:50:37.871Z,100279.75
2018-08-06T01:53:05.471Z,100283.02
2018-08-06T01:55:33.083Z,100281.69
2018-08-06T01:58:00.684Z,100279.81
2018-08-06T02:00:28.345Z,100274.34
2018-08-06T02:02:55.898Z,100275.13
2018-08-06T02:05:23.487Z,100276.23
2018-08-06T02:07:51.097Z,100283.85
2018-08-06T02:10:18.725Z,100274.20
2018-08-06T02:12:46.310Z,100278.98
2018-08-06T02:15:14.009Z,100279.30
2018-08-06T02:17:41.699Z,100277.81
2018-08-06T02:20:14.442Z,100271.08
2018-08-06T02:22:42.346Z,100270.15
2018-08-06T02:25:10.509Z,100275.18
2018-08-06T02:27:38.166Z,100270.44
2018-08-06T02:30:09.267Z,100277.16
2018-08-06T02:32:36.885Z,100277.14
2018-08-06T02:35:06.225Z,100281.91
2018-08-06T02:37:33.840Z,100286.94
2018-08-06T02:40:01.490Z,100281.82
2018-08-06T02:42:29.042Z,100271.61
2018-08-06T02:44:56.914Z,100275.53
2018-08-06T02:47:24.477Z,100276.81
2018-08-06T02:49:52.072Z,100277.94
2018-08-06T02:52:19.690Z,100275.89
2018-08-06T02:54:47.328Z,100279.23
2018-08-06T02:57:14.940Z,100277.92
2018-08-06T02:59:42.576Z,100275.98
2018-08-06T03:02:10.217Z,100270.11
2018-08-06T03:04:37.851Z,100280.72
2018-08-06T03:07:05.430Z,100272.38
2018-08-06T03:09:33.043Z,100273.34
2018-08-06T03:12:00.716Z,100280.97
2018-08-06T03:14:28.373Z,100273.84
2018-08-06T03:16:55.997Z,100274.02
2018-08-06T03:19:23.609Z,100276.77
2018-08-06T03:21:51.331Z,100273.67
2018-08-06T03:24:19.075Z,100273.30
2018-08-06T03:26:46.749Z,100277.59
2018-08-06T03:29:14.415Z,100276.09
2018-08-06T03:31:42.134Z,100272.81
2018-08-06T03:34:09.813Z,100275.20
2018-08-06T03:36:37.449Z,100273.67
2018-08-06T03:39:08.466Z,100274.22
2018-08-06T03:41:36.266Z,100277.56
2018-08-06T03:44:04.744Z,100280.31
2018-08-06T03:46:32.377Z,100280.84
2018-08-06T03:49:00.025Z,100277.70
2018-08-06T03:51:27.654Z,100288.37
2018-08-06T03:53:55.315Z,100288.13
2018-08-06T03:56:22.932Z,100287.28
2018-08-06T03:58:51.379Z,100288.67
2018-08-06T04:01:18.953Z,100285.73
2018-08-06T04:03:46.849Z,100286.88
2018-08-06T04:06:14.698Z,100283.86
2018-08-06T04:08:42.311Z,100280.73
2018-08-06T04:11:09.953Z,100282.33
2018-08-06T04:13:37.758Z,100282.25
2018-08-06T04:16:05.308Z,100288.99
2018-08-06T04:18:32.878Z,100285.38
2018-08-06T04:21:01.228Z,100290.48
2018-08-06T04:23:28.828Z,100287.28
2018-08-06T04:25:56.456Z,100296.30
2018-08-06T04:28:24.140Z,100290.83
2018-08-06T04:30:51.763Z,100295.94
2018-08-06T04:33:19.343Z,100295.52
2018-08-06T04:35:48.152Z,100297.38
2018-08-06T04:38:15.741Z,100300.20
2018-08-06T04:40:43.354Z,100297.05
2018-08-06T04:43:10.913Z,100301.72
2018-08-06T04:45:38.525Z,100301.19
2018-08-06T04:48:06.206Z,100301.70
2018-08-06T04:50:33.763Z,100294.87
2018-08-06T04:53:01.364Z,100305.39
2018-08-06T04:55:29.037Z,100301.19
2018-08-06T04:57:56.653Z,100306.13
2018-08-06T05:00:24.223Z,100304.92
2018-08-06T05:02:51.791Z,100303.88
2018-08-06T05:05:19.382Z,100306.19
2018-08-06T05:07:46.979Z,100305.11
2018-08-06T05:10:14.525Z,100312.02
2018-08-06T05:12:42.211Z,100301.89
2018-08-06T05:15:09.783Z,100309.58
2018-08-06T05:17:37.377Z,100306.20
2018-08-06T05:20:05.029Z,100307.17
2018-08-06T05:22:32.648Z,100310.38
2018-08-06T05:25:00.236Z,100309.45
2018-08-06T05:27:27.852Z,100318.08
2018-08-06T05:29:55.428Z,100318.75
2018-08-06T05:32:23.037Z,100315.92
2018-08-06T05:34:50.708Z,100320.86
2018-08-06T05:37:18.636Z,100326.11
2018-08-06T05:39:46.202Z,100330.14
2018-08-06T05:42:13.914Z,100328.37
2018-08-06T05:44:41.639Z,100327.45
2018-08-06T05:47:09.353Z,100332.48
2018-08-06T05:49:37.085Z,100331.03
2018-08-06T05:52:04.961Z,100332.28
2018-08-06T05:54:32.520Z,100332.69
2018-08-06T05:57:00.145Z,100333.98
2018-08-06T05:59:27.905Z,100338.19
2018-08-06T06:01:55.558Z,100333.52
2018-08-06T06:04:23.263Z,100340.28
2018-08-06T06:06:50.987Z,100345.80
2018-08-06T06:09:18.615Z,100340.94
2018-08-06T06:11:46.373Z,100344.56
2018-08-06T06:14:14.123Z,100345.05
2018-08-06T06:16:41.882Z,100346.95
2018-08-06T06:19:09.652Z,100352.05
2018-08-06T06:21:37.412Z,100346.91
2018-08-06T06:24:05.181Z,100355.31
2018-08-06T06:26:32.866Z,100359.89
2018-08-06T06:29:00.561Z,100359.66
2018-08-06T06:31:28.204Z,100350.63
2018-08-06T06:33:55.984Z,100351.41
2018-08-06T06:36:23.671Z,100354.98
2018-08-06T06:38:51.327Z,100356.35
2018-08-06T06:41:19.045Z,100358.30
2018-08-06T06:43:46.837Z,100358.16
2018-08-06T06:46:14.512Z,100348.66
2018-08-06T06:48:42.191Z,100359.64
2018-08-06T06:51:09.911Z,100353.91
2018-08-06T06:53:37.602Z,100353.86
2018-08-06T06:56:05.584Z,100357.25
2018-08-06T06:58:33.351Z,100342.37
2018-08-06T07:01:01.015Z,100350.63
2018-08-06T07:03:28.683Z,100347.86
2018-08-06T07:05:56.384Z,100350.28
2018-08-06T07:08:24.058Z,100345.59
2018-08-06T07:10:51.772Z,100343.01
2018-08-06T07:13:19.408Z,100340.50
2018-08-06T07:15:47.079Z,100339.98
2018-08-06T07:47:55.140Z,100327.66
2018-08-06T07:50:22.739Z,100328.39
2018-08-06T07:52:50.388Z,100328.66
2018-08-06T07:55:18.016Z,100324.64
2018-08-06T07:57:45.638Z,100312.23
2018-08-06T08:00:18.295Z,100330.05
2018-08-06T08:02:45.946Z,100323.45
2018-08-06T08:05:14.924Z,100324.80
2018-08-06T08:07:44.153Z,100317.88
2018-08-06T08:10:15.187Z,100326.45
2018-08-06T08:12:43.473Z,100320.34
2018-08-06T08:15:14.318Z,100317.05
2018-08-06T08:17:42.803Z,100312.27
2018-08-06T08:20:12.542Z,100312.05
2018-08-06T08:22:41.202Z,100313.31
2018-08-06T08:25:11.682Z,100310.48
2018-08-06T08:27:39.455Z,100309.84
2018-08-06T08:30:09.053Z,100314.89
2018-08-06T08:32:36.753Z,100312.16
2018-08-06T08:35:04.903Z,100318.97
2018-08-06T08:37:33.626Z,100310.87
2018-08-06T08:40:01.597Z,100309.94
2018-08-06T08:42:29.178Z,100311.36
2018-08-06T08:44:56.790Z,100314.17
2018-08-06T08:47:24.460Z,100310.48
2018-08-06T08:49:52.079Z,100306.13
2018-08-06T08:52:19.676Z,100305.80
2018-08-06T08:54:47.420Z,100305.08
2018-08-06T08:57:15.055Z,100290.17
2018-08-06T08:59:42.679Z,100298.91
2018-08-06T09:02:10.266Z,100304.16
2018-08-06T09:04:37.950Z,100306.64
2018-08-06T09:07:05.560Z,100299.42
2018-08-06T09:09:33.145Z,100291.63
2018-08-06T09:12:00.723Z,100287.10
2018-08-06T09:14:28.315Z,100281.30
2018-08-06T09:16:55.994Z,100284.23
2018-08-06T09:19:23.652Z,100275.80
2018-08-06T09:21:51.235Z,100274.95
2018-08-06T09:24:18.929Z,100273.09
2018-08-06T09:26:46.716Z,100268.05
2018-08-06T09:29:14.327Z,100266.98
2018-08-06T09:31:42.018Z,100268.70
2018-08-06T09:34:09.692Z,100268.28
2018-08-06T09:36:37.410Z,100262.21
2018-08-06T09:39:09.811Z,100258.04
2018-08-06T09:41:37.859Z,100198.68
2018-08-06T09:44:05.838Z,100259.89
2018-08-06T09:46:33.939Z,100255.39
2018-08-06T09:49:01.713Z,100259.99
2018-08-06T09:51:29.482Z,100254.70
2018-08-06T09:53:57.317Z,100254.91
2018-08-06T09:56:25.591Z,100251.06
2018-08-06T09:58:53.340Z,100245.62
2018-08-06T10:01:26.854Z,100243.60
2018-08-06T10:03:54.740Z,100243.28
2018-08-06T10:06:22.516Z,100242.14
2018-08-06T10:08:50.077Z,100241.38
2018-08-06T10:11:17.745Z,100240.33
2018-08-06T10:13:45.391Z,100230.37
2018-08-06T10:16:13.087Z,100231.84
2018-08-06T10:18:40.806Z,100227.19
2018-08-06T10:21:08.549Z,100224.64
2018-08-06T10:23:36.235Z,100224.52
2018-08-06T10:26:03.983Z,100211.77
2018-08-06T10:28:31.662Z,100212.84
2018-08-06T10:30:59.245Z,100216.06
2018-08-06T10:33:26.841Z,100207.45
2018-08-06T10:35:54.433Z,100208.92
2018-08-06T10:38:22.731Z,100202.42
2018-08-06T10:40:50.354Z,100207.05
2018-08-06T10:43:17.928Z,100200.09
2018-08-06T10:45:45.588Z,100199.58
2018-08-06T10:48:13.286Z,100196.80
2018-08-06T10:50:41.134Z,100195.52
2018-08-06T10:53:08.799Z,100198.97
2018-08-06T10:55:36.399Z,100195.76
2018-08-06T10:58:04.391Z,100188.50
2018-08-06T11:00:32.081Z,100182.09
2018-08-06T11:02:59.762Z,100182.64
2018-08-06T11:05:27.569Z,100191.31
2018-08-06T11:07:55.584Z,100184.27
2018-08-06T11:10:23.750Z,100186.61
2018-08-06T11:12:51.395Z,100184.34
2018-08-06T11:15:24.311Z,100177.84
2018-08-06T11:17:51.903Z,100184.59
2018-08-06T11:20:20.223Z,100173.02
2018-08-06T11:22:47.819Z,100170.32
2018-08-06T11:25:18.226Z,100168.09
2018-08-06T11:27:46.290Z,100162.56
2018-08-06T11:30:16.438Z,100158.73
2018-08-06T11:32:44.898Z,100156.81
2018-08-06T11:35:13.896Z,100155.16
2018-08-06T11:37:41.757Z,100149.68
2018-08-06T11:40:11.364Z,100145.23
2018-08-06T11:42:39.778Z,100148.59
2018-08-06T11:45:10.960Z,100140.09
2018-08-06T11:47:38.613Z,100140.59
2018-08-06T11:50:07.110Z,100136.59
2018-08-06T11:52:34.714Z,100138.89
2018-08-06T11:55:02.372Z,100136.33
2018-08-06T11:57:29.991Z,100128.97
2018-08-06T11:59:57.801Z,100124.96
2018-08-06T12:02:25.977Z,100130.53
2018-08-06T12:04:53.621Z,100128.50
2018-08-06T12:07:21.281Z,100126.36
2018-08-06T12:09:48.949Z,100117.99
2018-08-06T12:12:17.119Z,100119.60
2018-08-06T12:14:44.769Z,100113.12
2018-08-06T12:17:12.481Z,100110.92
2018-08-06T12:19:41.361Z,100064.81
2018-08-06T12:22:08.985Z,100109.00
2018-08-06T12:24:36.557Z,100111.53
2018-08-06T12:27:05.593Z,100107.27
2018-08-06T12:29:33.219Z,100102.66
2018-08-06T12:32:00.876Z,100102.95
2018-08-06T12:49:13.353Z,100085.81
2018-08-06T12:51:40.993Z,100078.43
2018-08-06T12:54:09.815Z,100081.69
2018-08-06T12:56:37.489Z,100074.17
2018-08-06T12:59:05.446Z,100076.36
2018-08-06T13:01:33.081Z,100071.41
2018-08-06T13:04:00.661Z,100072.78
2018-08-06T13:06:28.302Z,100068.66
2018-08-06T13:08:56.773Z,100067.66
2018-08-06T13:11:24.427Z,100062.70
2018-08-06T13:13:52.001Z,100061.88
2018-08-06T13:16:19.631Z,100065.20
2018-08-06T13:18:47.291Z,100059.73
2018-08-06T13:21:14.913Z,100054.67
2018-08-06T13:23:42.508Z,100055.64
2018-08-06T13:26:10.323Z,100051.61
2018-08-06T13:28:37.896Z,100048.78
2018-08-06T13:31:05.941Z,100041.72
2018-08-06T13:33:33.613Z,100040.50
2018-08-06T13:36:01.258Z,100026.79
2018-08-06T13:38:28.848Z,100033.49
2018-08-06T13:40:56.494Z,100032.03
2018-08-06T13:43:24.074Z,100031.20
2018-08-06T13:45:51.688Z,100034.68
2018-08-06T13:48:19.298Z,100031.61
2018-08-06T13:50:47.026Z,100025.66
2018-08-06T13:53:14.786Z,100024.13
2018-08-06T13:55:42.376Z,100025.02
2018-08-06T13:58:10.042Z,100029.30
2018-08-06T14:00:38.133Z,100021.67
2018-08-06T14:03:05.966Z,100020.73
2018-08-06T14:05:33.566Z,100013.99
2018-08-06T14:08:01.149Z,100009.11
2018-08-06T14:10:28.780Z,100011.09
2018-08-06T14:12:56.373Z,100009.63
2018-08-06T14:15:23.981Z,100001.08
2018-08-06T14:17:51.633Z,99999.23
2018-08-06T14:20:19.223Z,99995.95
2018-08-06T14:22:46.853Z,99993.28
2018-08-06T14:25:14.389Z,99992.21
2018-08-06T14:27:42.027Z,99993.71
2018-08-06T14:30:12.819Z,99988.56
2018-08-06T14:32:41.182Z,99984.45
2018-08-06T14:35:09.208Z,99977.58
2018-08-06T14:37:36.755Z,99978.89
2018-08-06T14:40:08.342Z,99969.22
2018-08-06T14:42:35.905Z,99971.05
2018-08-06T14:45:05.498Z,99963.89
2018-08-06T14:47:33.124Z,99960.30
2018-08-06T14:50:00.702Z,99964.44
2018-08-06T14:52:28.324Z,99959.50
2018-08-06T14:54:55.954Z,99967.44
2018-08-06T14:57:23.546Z,99955.09
2018-08-06T14:59:51.145Z,99954.81
2018-08-06T15:02:18.772Z,99949.13
2018-08-06T15:04:46.340Z,99951.53
2018-08-06T15:07:13.936Z,99955.52
2018-08-06T15:09:42.667Z,99956.24
2018-08-06T15:12:10.309Z,99952.27
2018-08-06T15:14:37.981Z,99946.30
2018-08-06T15:17:05.668Z,99934.11
2018-08-06T15:19:33.310Z,99925.30
2018-08-06T15:22:01.012Z,99924.84
2018-08-06T15:24:28.593Z,99919.45
2018-08-06T15:26:56.181Z,99918.36
2018-08-06T15:29:23.825Z,99921.11
2018-08-06T15:31:51.426Z,99909.02
2018-08-06T15:34:19.046Z,99909.33
2018-08-06T15:36:46.662Z,99909.64
2018-08-06T15:39:14.790Z,99903.89
2018-08-06T15:41:44.097Z,99900.71
2018-08-06T15:44:11.750Z,99902.40
2018-08-06T15:46:40.674Z,99900.59
2018-08-06T15:49:08.218Z,99897.03
2018-08-06T15:51:36.220Z,99890.77
2018-08-06T15:54:03.757Z,99886.23
2018-08-06T15:56:31.570Z,99893.27
2018-08-06T15:58:59.169Z,99889.53
2018-08-06T16:01:26.750Z,99885.06
2018-08-06T16:03:54.875Z,99881.66
2018-08-06T16:06:22.274Z,99886.28
2018-08-06T16:08:49.876Z,99876.35
2018-08-06T16:11:17.537Z,99867.89
2018-08-06T16:13:45.277Z,99872.37
2018-08-06T16:16:12.849Z,99862.88
2018-08-06T16:18:40.433Z,99860.83
2018-08-06T16:21:08.094Z,99858.73
2018-08-06T16:23:35.759Z,99859.55
2018-08-06T16:26:03.423Z,99853.20
2018-08-06T16:28:31.027Z,99861.13
2018-08-06T16:30:58.624Z,99846.98
2018-08-06T16:33:26.350Z,99846.59
2018-08-06T16:35:53.914Z,99844.11
2018-08-06T16:38:21.616Z,99838.35
2018-08-06T16:40:49.301Z,99838.03
2018-08-06T16:43:16.956Z,99837.67
2018-08-06T16:45:44.630Z,99834.58
2018-08-06T16:48:12.352Z,99841.03
2018-08-06T16:50:39.930Z,99834.00
2018-08-06T16:53:07.629Z,99833.30
2018-08-06T16:55:35.236Z,99840.82
2018-08-06T16:58:02.826Z,99836.41
2018-08-06T17:00:30.454Z,99826.59
2018-08-06T17:02:58.066Z,99832.41
2018-08-06T17:05:25.687Z,99822.92
2018-08-06T17:07:53.556Z,99830.16
2018-08-06T17:10:21.483Z,99827.62
2018-08-06T17:12:51.131Z,99828.28
2018-08-06T17:15:19.813Z,99826.37
2018-08-06T17:17:48.788Z,99813.89
2018-08-06T17:20:18.399Z,99813.75
2018-08-06T17:22:47.146Z,99817.86
2018-08-06T17:25:14.939Z,99813.23
2018-08-06T17:27:42.712Z,99810.11
2018-08-06T17:30:11.594Z,99813.77
2018-08-06T17:32:39.502Z,99812.53
2018-08-06T17:35:09.766Z,99809.91
2018-08-06T17:37:37.428Z,99810.72
2018-08-06T17:40:08.714Z,99813.14
2018-08-06T17:42:36.588Z,99813.98
2018-08-06T17:45:06.190Z,99816.41
2018-08-06T17:47:33.778Z,99810.02
2018-08-06T17:50:01.443Z,99809.67
2018-08-06T17:52:29.062Z,99810.27
2018-08-06T17:54:56.712Z,99813.53
2018-08-06T17:57:24.368Z,99811.79
2018-08-06T17:59:51.909Z,99812.09
2018-08-06T18:02:19.496Z,99813.45
2018-08-06T18:04:47.049Z,99815.88
2018-08-06T18:07:14.814Z,99812.69
2018-08-06T18:09:42.422Z,99814.88
2018-08-06T18:12:10.013Z,99815.09
2018-08-06T18:14:37.663Z,99814.34
2018-08-06T18:17:05.318Z,99814.72
2018-08-06T18:19:32.979Z,99813.06
2018-08-06T18:22:00.632Z,99814.61
2018-08-06T18:24:28.267Z,99809.13
2018-08-06T18:26:55.952Z,99811.91
2018-08-06T18:29:23.680Z,99808.19
2018-08-06T18:31:52.543Z,99806.19
2018-08-06T18:34:20.255Z,99810.72
2018-08-06T18:36:48.521Z,99808.38
2018-08-06T18:39:23.142Z,99809.28
2018-08-06T18:41:50.746Z,99814.47
2018-08-06T18:44:18.470Z,99809.70
2018-08-06T18:46:46.084Z,99820.84
2018-08-06T18:49:13.714Z,99824.36
2018-08-06T18:51:41.388Z,99815.80
2018-08-06T18:54:09.072Z,99823.25
2018-08-06T18:56:36.725Z,99823.46
2018-08-06T18:59:04.524Z,99826.55
2018-08-06T19:01:32.241Z,99831.98
2018-08-06T19:03:59.915Z,99830.58
2018-08-06T19:06:27.586Z,99833.30
2018-08-06T19:08:55.191Z,99830.69
2018-08-06T19:11:22.904Z,99833.35
2018-08-06T19:13:56.421Z,99838.67
2018-08-06T19:16:24.167Z,99836.17
2018-08-06T19:18:57.670Z,99839.61
2018-08-06T19:21:25.362Z,99835.02
2018-08-06T19:23:58.836Z,99839.61
2018-08-06T19:26:26.510Z,99843.74
2018-08-06T19:28:54.219Z,99842.47
2018-08-06T19:31:24.929Z,99840.83
2018-08-06T19:33:53.023Z,99841.98
2018-08-06T19:36:20.944Z,99840.59
2018-08-06T19:38:48.658Z,99834.22
2018-08-06T19:41:16.369Z,99839.86
2018-08-06T19:43:44.111Z,99838.36
2018-08-06T19:46:11.736Z,99824.92
2018-08-06T19:48:39.437Z,99843.27
2018-08-06T19:51:07.145Z,99839.92
2018-08-06T19:53:34.916Z,99847.13
2018-08-06T19:56:08.225Z,99844.88
2018-08-06T19:58:35.915Z,99849.66
2018-08-06T20:01:03.568Z,99851.11
2018-08-06T20:03:31.297Z,99850.45
2018-08-06T20:05:58.977Z,99845.84
2018-08-06T20:08:26.746Z,99849.19
2018-08-06T20:10:54.405Z,99852.13
2018-08-06T20:13:22.049Z,99844.33
2018-08-06T20:15:49.698Z,99842.98
2018-08-06T20:18:17.398Z,99847.51
2018-08-06T20:20:45.077Z,99843.77
2018-08-06T20:23:12.842Z,99848.23
2018-08-06T20:25:41.070Z,99846.30
2018-08-06T20:28:08.910Z,99846.52
2018-08-06T20:30:36.630Z,99848.86
2018-08-06T20:33:05.396Z,99844.15
2018-08-06T20:35:33.153Z,99849.37
2018-08-06T20:38:00.779Z,99845.64
2018-08-06T20:40:28.378Z,99846.80
2018-08-06T20:42:56.058Z,99852.33
2018-08-06T20:45:23.637Z,99851.35
2018-08-06T20:47:51.274Z,99845.20
2018-08-06T20:50:20.789Z,99849.80
2018-08-06T20:52:49.594Z,99852.43
2018-08-06T20:55:17.275Z,99852.88
2018-08-06T20:57:45.143Z,99849.69
2018-08-06T21:00:17.789Z,99852.18
2018-08-06T21:02:46.257Z,99852.33
2018-08-06T21:05:13.828Z,99852.09
2018-08-06T21:07:41.566Z,99848.70
2018-08-06T21:10:11.073Z,99847.42
2018-08-06T21:12:38.750Z,99852.81
2018-08-06T21:15:07.250Z,99850.58
2018-08-06T21:17:35.342Z,99855.43
2018-08-06T21:20:03.565Z,99851.67
2018-08-06T21:22:31.448Z,99851.72
2018-08-06T21:24:59.199Z,99853.12
2018-08-06T21:27:27.104Z,99849.22
2018-08-06T21:29:54.748Z,99849.92
2018-08-06T21:32:22.614Z,99851.81
2018-08-06T21:34:50.224Z,99839.56
2018-08-06T21:37:17.864Z,99849.55
2018-08-06T21:39:45.441Z,99843.69
2018-08-06T21:42:13.057Z,99848.73
2018-08-06T21:44:40.727Z,99852.05
2018-08-06T21:47:08.483Z,99848.86
2018-08-06T21:49:36.110Z,99842.78
2018-08-06T21:52:03.729Z,99840.81
2018-08-06T21:54:31.317Z,99845.14
2018-08-06T21:56:58.845Z,99828.98
2018-08-06T21:59:26.531Z,99842.15
